createdAt,value
2018-11-23T00:00:20.757Z,32.90
2018-11-23T00:01:20.694Z,33.50
2018-11-23T00:02:20.623Z,35.30
2018-11-23T00:03:20.555Z,33.30
2018-11-23T00:04:20.492Z,34.60
2018-11-23T00:05:20.419Z,34.30
2018-11-23T00:06:20.354Z,34.20
2018-11-23T00:07:20.283Z,34.10
2018-11-23T00:08:20.216Z,31.20
2018-11-23T00:09:20.150Z,28.50
2018-11-23T00:10:20.082Z,31.30
2018-11-23T00:11:20.012Z,29.20
2018-11-23T00:12:19.949Z,28.80
2018-11-23T00:13:19.878Z,31.60
2018-11-23T00:14:19.810Z,29.80
2018-11-23T00:15:19.742Z,29.30
2018-11-23T00:16:19.677Z,27.50
2018-11-23T00:17:19.608Z,27.80
2018-11-23T00:18:19.540Z,28.70
2018-11-23T00:19:19.470Z,29.10
2018-11-23T00:20:19.404Z,29.00
2018-11-23T00:21:19.338Z,30.90
2018-11-23T00:22:19.269Z,30.20
2018-11-23T00:23:19.200Z,26.80
2018-11-23T00:24:19.134Z,28.40
2018-11-23T00:25:19.065Z,27.50
2018-11-23T00:26:19.000Z,27.50
2018-11-23T00:27:18.930Z,26.90
2018-11-23T00:28:18.862Z,26.80
2018-11-23T00:29:18.807Z,27.50
2018-11-23T00:30:18.726Z,26.90
2018-11-23T00:31:18.660Z,27.40
2018-11-23T00:32:18.592Z,27.30
2018-11-23T00:33:18.525Z,28.50
2018-11-23T00:34:18.457Z,26.00
2018-11-23T00:35:18.390Z,29.00
2018-11-23T00:36:18.322Z,26.90
2018-11-23T00:37:18.254Z,30.60
2018-11-23T00:38:18.185Z,28.30
2018-11-23T00:39:18.116Z,31.00
2018-11-23T00:40:18.053Z,27.60
2018-11-23T00:41:17.984Z,30.20
2018-11-23T00:42:17.926Z,27.10
2018-11-23T00:43:17.847Z,27.70
2018-11-23T00:44:17.779Z,25.40
2018-11-23T00:45:17.714Z,27.70
2018-11-23T00:46:17.643Z,23.20
2018-11-23T00:47:17.575Z,23.50
2018-11-23T00:48:17.510Z,24.20
2018-11-23T00:49:17.439Z,21.40
2018-11-23T00:50:17.373Z,23.00
2018-11-23T00:51:17.307Z,22.10
2018-11-23T00:52:17.237Z,22.00
2018-11-23T00:53:17.168Z,22.80
2018-11-23T00:54:17.102Z,23.90
2018-11-23T00:55:17.035Z,22.80
2018-11-23T00:56:16.967Z,20.60
2018-11-23T00:57:16.902Z,23.40
2018-11-23T00:58:16.837Z,23.60
2018-11-23T00:59:16.763Z,21.50
2018-11-23T01:00:16.699Z,22.00
2018-11-23T01:01:16.627Z,21.50
2018-11-23T01:02:16.566Z,22.90
2018-11-23T01:03:16.492Z,21.80
2018-11-23T01:04:16.424Z,22.50
2018-11-23T01:05:16.355Z,20.50
2018-11-23T01:06:16.287Z,25.50
2018-11-23T01:07:16.218Z,24.90
2018-11-23T01:08:16.159Z,22.60
2018-11-23T01:09:16.083Z,23.60
2018-11-23T01:10:16.015Z,22.20
2018-11-23T01:11:15.950Z,21.80
2018-11-23T01:12:15.881Z,21.70
2018-11-23T01:13:15.813Z,21.20
2018-11-23T01:14:15.748Z,21.40
2018-11-23T01:15:15.677Z,22.20
2018-11-23T01:16:15.613Z,22.00
2018-11-23T01:17:15.547Z,20.10
2018-11-23T01:18:15.478Z,22.00
2018-11-23T01:19:15.412Z,19.90
2018-11-23T01:20:15.342Z,19.50
2018-11-23T01:21:15.270Z,20.70
2018-11-23T01:22:15.205Z,19.80
2018-11-23T01:23:15.145Z,22.50
2018-11-23T01:24:15.069Z,22.90
2018-11-23T01:25:15.002Z,21.50
2018-11-23T01:26:14.932Z,21.70
2018-11-23T01:27:14.864Z,21.20
2018-11-23T01:28:14.804Z,21.00
2018-11-23T01:29:14.751Z,20.00
2018-11-23T01:30:14.661Z,20.10
2018-11-23T01:31:14.594Z,18.60
2018-11-23T01:32:14.525Z,21.30
2018-11-23T01:33:14.457Z,25.50
2018-11-23T01:34:14.394Z,20.40
2018-11-23T01:35:14.319Z,20.80
2018-11-23T01:36:14.254Z,21.20
2018-11-23T01:37:14.186Z,21.90
2018-11-23T01:38:14.118Z,21.80
2018-11-23T01:39:14.054Z,23.50
2018-11-23T01:40:13.982Z,20.40
2018-11-23T01:41:13.914Z,22.00
2018-11-23T01:42:13.847Z,20.10
2018-11-23T01:43:13.781Z,22.50
2018-11-23T01:44:13.711Z,21.30
2018-11-23T01:45:13.654Z,20.20
2018-11-23T01:46:13.576Z,21.30
2018-11-23T01:47:13.507Z,23.20
2018-11-23T01:48:13.440Z,21.20
2018-11-23T01:49:13.371Z,22.20
2018-11-23T01:50:13.304Z,24.00
2018-11-23T01:51:13.236Z,21.20
2018-11-23T01:52:13.169Z,20.90
2018-11-23T01:53:13.101Z,21.80
2018-11-23T01:54:13.033Z,20.40
2018-11-23T01:55:12.964Z,22.20
2018-11-23T01:56:12.910Z,22.60
2018-11-23T01:57:12.830Z,22.30
2018-11-23T01:58:12.761Z,21.70
2018-11-23T01:59:12.693Z,22.30
2018-11-23T02:00:12.629Z,21.20
2018-11-23T02:01:12.559Z,22.00
2018-11-23T02:02:12.490Z,20.40
2018-11-23T02:03:12.421Z,19.20
2018-11-23T02:04:12.394Z,21.80
2018-11-23T02:05:12.293Z,22.00
2018-11-23T02:06:12.217Z,21.00
2018-11-23T02:07:12.149Z,22.20
2018-11-23T02:08:12.084Z,21.70
2018-11-23T02:09:12.016Z,22.50
2018-11-23T02:10:11.948Z,22.30
2018-11-23T02:11:11.879Z,21.80
2018-11-23T02:12:11.809Z,21.60
2018-11-23T02:13:11.744Z,20.90
2018-11-23T02:14:11.677Z,20.70
2018-11-23T02:15:11.610Z,21.10
2018-11-23T02:16:11.541Z,20.20
2018-11-23T02:17:11.473Z,22.30
2018-11-23T02:18:11.404Z,21.30
2018-11-23T02:19:11.337Z,21.20
2018-11-23T02:20:11.273Z,21.80
2018-11-23T02:21:11.209Z,21.10
2018-11-23T02:22:11.135Z,21.70
2018-11-23T02:23:11.067Z,20.90
2018-11-23T02:24:10.997Z,20.80
2018-11-23T02:25:10.936Z,23.60
2018-11-23T02:26:10.862Z,22.10
2018-11-23T02:27:10.794Z,22.00
2018-11-23T02:28:10.726Z,19.00
2018-11-23T02:29:10.658Z,21.30
2018-11-23T02:30:10.591Z,23.30
2018-11-23T02:31:10.538Z,23.40
2018-11-23T02:32:10.458Z,21.90
2018-11-23T02:33:10.387Z,22.90
2018-11-23T02:34:10.323Z,22.70
2018-11-23T02:35:10.252Z,20.80
2018-11-23T02:36:10.185Z,18.80
2018-11-23T02:37:10.118Z,23.40
2018-11-23T02:38:10.049Z,21.10
2018-11-23T02:39:09.981Z,22.20
2018-11-23T02:40:09.913Z,19.90
2018-11-23T02:41:09.846Z,21.80
2018-11-23T02:42:09.776Z,20.20
2018-11-23T02:43:09.709Z,22.10
2018-11-23T02:44:09.642Z,21.40
2018-11-23T02:45:09.574Z,20.10
2018-11-23T02:46:09.515Z,22.50
2018-11-23T02:47:09.444Z,23.30
2018-11-23T02:48:09.371Z,22.00
2018-11-23T02:49:09.305Z,19.80
2018-11-23T02:50:09.237Z,21.30
2018-11-23T02:51:09.168Z,21.10
2018-11-23T02:52:09.100Z,21.60
2018-11-23T02:53:09.035Z,20.20
2018-11-23T02:54:08.965Z,19.30
2018-11-23T02:55:08.896Z,20.70
2018-11-23T02:56:08.839Z,19.40
2018-11-23T02:57:08.761Z,19.10
2018-11-23T02:58:08.709Z,19.40
2018-11-23T02:59:08.634Z,20.80
2018-11-23T03:00:08.558Z,22.00
2018-11-23T03:01:08.491Z,20.10
2018-11-23T03:02:08.425Z,20.00
2018-11-23T03:03:08.356Z,18.90
2018-11-23T03:04:08.287Z,18.80
2018-11-23T03:05:08.223Z,19.60
2018-11-23T03:06:08.150Z,18.70
2018-11-23T03:07:08.083Z,20.00
2018-11-23T03:08:08.015Z,18.20
2018-11-23T03:09:07.948Z,20.40
2018-11-23T03:10:07.878Z,19.70
2018-11-23T03:11:07.815Z,20.40
2018-11-23T03:12:07.751Z,19.30
2018-11-23T03:13:07.677Z,19.30
2018-11-23T03:14:07.628Z,19.10
2018-11-23T03:15:07.541Z,21.30
2018-11-23T03:16:07.476Z,20.30
2018-11-23T03:17:07.404Z,20.60
2018-11-23T03:18:07.338Z,19.80
2018-11-23T03:19:07.273Z,19.80
2018-11-23T03:20:07.204Z,19.90
2018-11-23T03:21:07.144Z,19.10
2018-11-23T03:22:07.067Z,19.40
2018-11-23T03:23:06.998Z,18.60
2018-11-23T03:24:06.933Z,20.10
2018-11-23T03:25:06.869Z,20.00
2018-11-23T03:26:06.796Z,20.30
2018-11-23T03:27:06.728Z,20.30
2018-11-23T03:28:06.661Z,19.00
2018-11-23T03:29:06.593Z,19.50
2018-11-23T03:30:06.525Z,19.90
2018-11-23T03:31:12.197Z,19.30
2018-11-23T03:32:06.386Z,18.50
2018-11-23T03:33:06.322Z,20.10
2018-11-23T03:34:06.259Z,19.20
2018-11-23T03:35:06.186Z,19.40
2018-11-23T03:36:06.119Z,19.40
2018-11-23T03:37:06.049Z,20.30
2018-11-23T03:38:05.983Z,19.60
2018-11-23T03:39:05.914Z,21.10
2018-11-23T03:40:05.846Z,20.80
2018-11-23T03:41:05.778Z,19.50
2018-11-23T03:42:05.711Z,19.10
2018-11-23T03:43:05.642Z,18.80
2018-11-23T03:44:05.576Z,19.10
2018-11-23T03:45:05.512Z,19.30
2018-11-23T03:46:05.440Z,20.00
2018-11-23T03:47:05.375Z,19.30
2018-11-23T03:48:05.302Z,19.00
2018-11-23T03:49:05.242Z,18.70
2018-11-23T03:50:05.173Z,18.60
2018-11-23T03:51:05.100Z,19.20
2018-11-23T03:52:05.035Z,18.90
2018-11-23T03:53:04.964Z,17.90
2018-11-23T03:54:04.905Z,19.50
2018-11-23T03:55:04.853Z,21.20
2018-11-23T03:56:04.762Z,19.90
2018-11-23T03:57:04.709Z,18.90
2018-11-23T03:58:04.626Z,19.90
2018-11-23T03:59:04.557Z,19.20
2018-11-23T04:00:04.490Z,19.70
2018-11-23T04:01:04.422Z,21.30
2018-11-23T04:02:04.355Z,19.20
2018-11-23T04:03:04.294Z,17.90
2018-11-23T04:04:04.218Z,21.10
2018-11-23T04:05:04.151Z,20.20
2018-11-23T04:06:04.097Z,21.20
2018-11-23T04:07:04.016Z,21.00
2018-11-23T04:08:03.949Z,19.70
2018-11-23T04:09:03.878Z,20.90
2018-11-23T04:10:03.817Z,20.60
2018-11-23T04:11:03.790Z,19.80
2018-11-23T04:12:03.685Z,19.80
2018-11-23T04:13:03.613Z,19.00
2018-11-23T04:14:03.541Z,20.00
2018-11-23T04:15:03.475Z,18.50
2018-11-23T04:16:03.404Z,18.70
2018-11-23T04:17:03.336Z,21.30
2018-11-23T04:18:03.273Z,19.70
2018-11-23T04:19:03.200Z,18.50
2018-11-23T04:20:03.135Z,21.60
2018-11-23T04:21:03.067Z,19.00
2018-11-23T04:22:02.999Z,18.70
2018-11-23T04:23:02.933Z,18.40
2018-11-23T04:24:02.862Z,18.20
2018-11-23T04:25:02.804Z,18.80
2018-11-23T04:26:02.730Z,17.50
2018-11-23T04:27:02.659Z,18.60
2018-11-23T04:28:02.612Z,18.50
2018-11-23T04:29:02.526Z,19.30
2018-11-23T04:30:02.457Z,19.30
2018-11-23T04:31:02.455Z,19.00
2018-11-23T04:32:02.410Z,18.50
2018-11-23T04:33:02.253Z,18.00
2018-11-23T04:34:02.236Z,18.20
2018-11-23T04:35:02.154Z,18.00
2018-11-23T04:36:02.049Z,19.30
2018-11-23T04:37:01.976Z,19.30
2018-11-23T04:38:01.914Z,18.30
2018-11-23T04:39:01.845Z,19.60
2018-11-23T04:40:01.777Z,18.80
2018-11-23T04:41:01.710Z,17.90
2018-11-23T04:42:01.648Z,20.70
2018-11-23T04:43:01.574Z,18.40
2018-11-23T04:44:01.509Z,20.30
2018-11-23T04:45:01.441Z,18.90
2018-11-23T04:46:01.374Z,18.40
2018-11-23T04:47:01.300Z,17.20
2018-11-23T04:48:01.240Z,18.90
2018-11-23T04:49:01.167Z,20.80
2018-11-23T04:50:01.398Z,19.50
2018-11-23T04:51:01.030Z,19.10
2018-11-23T04:52:00.964Z,19.40
2018-11-23T04:53:00.917Z,20.90
2018-11-23T04:54:00.829Z,19.10
2018-11-23T04:55:00.760Z,17.00
2018-11-23T04:56:00.693Z,20.20
2018-11-23T04:57:00.625Z,19.00
2018-11-23T04:58:00.565Z,19.20
2018-11-23T04:59:00.486Z,18.50
2018-11-23T05:00:00.423Z,19.80
2018-11-23T05:01:00.365Z,18.60
2018-11-23T05:02:00.287Z,18.50
2018-11-23T05:03:00.217Z,19.50
2018-11-23T05:04:00.149Z,18.70
2018-11-23T05:05:00.080Z,18.10
2018-11-23T05:06:00.018Z,20.00
2018-11-23T05:06:59.948Z,18.00
2018-11-23T05:07:59.880Z,19.20
2018-11-23T05:08:59.826Z,17.50
2018-11-23T05:09:59.743Z,16.70
2018-11-23T05:10:59.677Z,17.00
2018-11-23T05:11:59.612Z,17.70
2018-11-23T05:12:59.539Z,19.40
2018-11-23T05:13:59.473Z,17.80
2018-11-23T05:14:59.406Z,17.80
2018-11-23T05:15:59.337Z,18.70
2018-11-23T05:16:59.273Z,18.10
2018-11-23T05:17:59.207Z,19.50
2018-11-23T05:18:59.134Z,19.80
2018-11-23T05:19:59.082Z,19.00
2018-11-23T05:20:58.998Z,18.80
2018-11-23T05:21:58.932Z,19.10
2018-11-23T05:22:58.864Z,18.10
2018-11-23T05:23:58.799Z,18.70
2018-11-23T05:24:58.736Z,17.80
2018-11-23T05:25:58.665Z,19.90
2018-11-23T05:26:58.590Z,18.70
2018-11-23T05:27:58.525Z,18.50
2018-11-23T05:28:58.457Z,20.60
2018-11-23T05:29:58.387Z,20.00
2018-11-23T05:30:58.336Z,20.00
2018-11-23T05:31:58.252Z,16.50
2018-11-23T05:32:58.184Z,19.40
2018-11-23T05:33:58.119Z,17.10
2018-11-23T05:34:58.051Z,18.50
2018-11-23T05:35:57.982Z,21.70
2018-11-23T05:36:57.913Z,19.70
2018-11-23T05:37:57.845Z,20.10
2018-11-23T05:38:57.778Z,19.10
2018-11-23T05:39:57.710Z,20.30
2018-11-23T05:40:57.642Z,21.30
2018-11-23T05:41:57.579Z,21.90
2018-11-23T05:43:04.123Z,23.20
2018-11-23T05:43:57.443Z,21.60
2018-11-23T05:44:57.374Z,21.60
2018-11-23T05:45:57.304Z,20.60
2018-11-23T05:46:57.244Z,22.50
2018-11-23T05:47:57.167Z,22.50
2018-11-23T05:48:57.102Z,20.70
2018-11-23T05:49:57.034Z,21.10
2018-11-23T05:50:56.965Z,22.10
2018-11-23T05:51:56.897Z,22.00
2018-11-23T05:52:56.829Z,21.30
2018-11-23T05:53:56.769Z,20.80
2018-11-23T05:54:56.693Z,21.00
2018-11-23T05:55:56.628Z,22.50
2018-11-23T05:56:56.562Z,21.90
2018-11-23T05:57:56.492Z,20.90
2018-11-23T05:58:56.422Z,23.50
2018-11-23T05:59:56.357Z,22.40
2018-11-23T06:00:56.286Z,20.70
2018-11-23T06:01:56.218Z,22.00
2018-11-23T06:02:56.152Z,21.20
2018-11-23T06:03:56.082Z,21.10
2018-11-23T06:04:56.017Z,21.30
2018-11-23T06:05:55.945Z,20.40
2018-11-23T06:06:55.881Z,21.30
2018-11-23T06:07:55.814Z,20.60
2018-11-23T06:08:55.746Z,22.20
2018-11-23T06:09:55.685Z,21.80
2018-11-23T06:10:55.609Z,22.00
2018-11-23T06:11:55.551Z,26.40
2018-11-23T06:12:55.473Z,22.60
2018-11-23T06:13:55.408Z,21.50
2018-11-23T06:14:55.338Z,23.20
2018-11-23T06:15:55.271Z,22.10
2018-11-23T06:16:55.204Z,22.00
2018-11-23T06:17:55.137Z,22.00
2018-11-23T06:18:55.069Z,23.70
2018-11-23T06:19:55.004Z,22.80
2018-11-23T06:20:54.933Z,22.50
2018-11-23T06:21:54.867Z,22.00
2018-11-23T06:22:54.796Z,21.90
2018-11-23T06:23:54.729Z,22.90
2018-11-23T06:24:54.667Z,21.80
2018-11-23T06:25:54.827Z,23.30
2018-11-23T06:26:54.526Z,21.80
2018-11-23T06:27:54.457Z,21.50
2018-11-23T06:28:54.389Z,22.90
2018-11-23T06:29:54.321Z,20.70
2018-11-23T06:30:54.253Z,22.20
2018-11-23T06:31:54.188Z,20.90
2018-11-23T06:32:54.119Z,21.80
2018-11-23T06:33:54.062Z,22.20
2018-11-23T06:34:53.983Z,20.30
2018-11-23T06:35:53.942Z,23.20
2018-11-23T06:36:53.847Z,23.70
2018-11-23T06:37:53.779Z,22.90
2018-11-23T06:38:53.713Z,20.00
2018-11-23T06:39:53.644Z,24.70
2018-11-23T06:40:53.577Z,23.10
2018-11-23T06:41:53.510Z,23.10
2018-11-23T06:42:53.439Z,22.80
2018-11-23T06:43:53.376Z,24.20
2018-11-23T06:44:53.306Z,24.30
2018-11-23T06:45:53.244Z,24.60
2018-11-23T06:46:53.170Z,24.80
2018-11-23T06:47:53.102Z,22.40
2018-11-23T06:48:53.035Z,22.60
2018-11-23T06:49:52.966Z,23.70
2018-11-23T06:50:52.896Z,25.70
2018-11-23T06:51:52.833Z,24.70
2018-11-23T06:52:52.759Z,21.60
2018-11-23T06:53:52.693Z,20.10
2018-11-23T06:54:52.674Z,20.00
2018-11-23T06:55:52.560Z,18.90
2018-11-23T06:56:52.493Z,20.40
2018-11-23T06:57:52.422Z,20.60
2018-11-23T06:58:52.355Z,18.70
2018-11-23T06:59:52.291Z,20.70
2018-11-23T07:00:52.222Z,21.80
2018-11-23T07:01:52.155Z,22.60
2018-11-23T07:02:52.141Z,22.90
2018-11-23T07:03:52.021Z,23.20
2018-11-23T07:04:51.966Z,23.40
2018-11-23T07:05:51.883Z,22.50
2018-11-23T07:06:51.814Z,21.60
2018-11-23T07:07:51.744Z,24.60
2018-11-23T07:08:52.525Z,25.60
2018-11-23T07:09:51.613Z,25.40
2018-11-23T07:10:51.551Z,24.80
2018-11-23T07:11:51.475Z,23.20
2018-11-23T07:12:51.407Z,24.70
2018-11-23T07:13:51.340Z,25.70
2018-11-23T07:14:51.270Z,19.10
2018-11-23T07:15:51.203Z,19.50
2018-11-23T07:16:51.138Z,19.90
2018-11-23T07:17:51.070Z,19.40
2018-11-23T07:18:51.053Z,20.30
2018-11-23T07:19:50.933Z,24.60
2018-11-23T07:20:50.870Z,24.00
2018-11-23T07:21:50.798Z,27.70
2018-11-23T07:22:50.735Z,28.10
2018-11-23T07:23:50.661Z,27.20
2018-11-23T07:24:50.590Z,26.80
2018-11-23T07:25:50.545Z,28.70
2018-11-23T07:26:50.457Z,35.40
2018-11-23T07:27:50.391Z,29.90
2018-11-23T07:28:50.330Z,35.40
2018-11-23T07:29:50.255Z,32.70
2018-11-23T07:30:50.186Z,36.60
2018-11-23T07:31:50.121Z,30.20
2018-11-23T07:32:50.058Z,28.70
2018-11-23T07:33:49.986Z,30.20
2018-11-23T07:34:49.916Z,24.40
2018-11-23T07:35:49.849Z,23.00
2018-11-23T07:36:49.780Z,25.30
2018-11-23T07:37:49.716Z,23.60
2018-11-23T07:38:49.646Z,24.60
2018-11-23T07:39:49.575Z,22.50
2018-11-23T07:40:49.526Z,25.50
2018-11-23T07:41:49.438Z,19.80
2018-11-23T07:42:49.378Z,23.70
2018-11-23T07:43:49.304Z,20.50
2018-11-23T07:44:49.240Z,18.90
2018-11-23T07:45:49.166Z,20.60
2018-11-23T07:46:49.104Z,21.80
2018-11-23T07:47:49.034Z,20.10
2018-11-23T07:48:48.966Z,21.00
2018-11-23T07:49:48.900Z,20.40
2018-11-23T07:50:48.830Z,21.70
2018-11-23T07:51:48.770Z,20.40
2018-11-23T07:52:48.696Z,20.30
2018-11-23T07:53:48.634Z,19.50
2018-11-23T07:54:48.564Z,21.00
2018-11-23T07:55:48.488Z,19.20
2018-11-23T07:56:48.421Z,20.50
2018-11-23T07:57:48.358Z,20.10
2018-11-23T07:58:48.290Z,20.00
2018-11-23T07:59:48.223Z,19.60
2018-11-23T08:00:48.156Z,20.80
2018-11-23T08:01:48.086Z,22.60
2018-11-23T08:02:48.106Z,21.60
2018-11-23T08:03:47.951Z,20.30
2018-11-23T08:04:47.883Z,21.20
2018-11-23T08:05:47.814Z,20.40
2018-11-23T08:06:47.748Z,19.00
2018-11-23T08:07:47.680Z,19.10
2018-11-23T08:08:47.613Z,18.90
2018-11-23T08:09:47.543Z,19.40
2018-11-23T08:10:47.475Z,21.40
2018-11-23T08:11:47.404Z,23.00
2018-11-23T08:12:47.340Z,24.10
2018-11-23T08:13:47.273Z,28.40
2018-11-23T08:14:47.208Z,24.30
2018-11-23T08:15:47.137Z,25.20
2018-11-23T08:16:47.071Z,25.10
2018-11-23T08:17:47.000Z,21.40
2018-11-23T08:18:46.931Z,22.00
2018-11-23T08:19:47.468Z,22.70
2018-11-23T08:20:46.840Z,20.00
2018-11-23T08:21:46.731Z,19.60
2018-11-23T08:22:46.658Z,21.60
2018-11-23T08:23:46.594Z,16.60
2018-11-23T08:24:46.531Z,18.60
2018-11-23T08:25:46.460Z,16.60
2018-11-23T08:26:46.392Z,17.40
2018-11-23T08:27:46.327Z,17.60
2018-11-23T08:28:46.265Z,17.60
2018-11-23T08:29:46.187Z,15.90
2018-11-23T08:30:46.123Z,17.70
2018-11-23T08:31:46.056Z,19.40
2018-11-23T08:32:45.989Z,16.90
2018-11-23T08:33:45.916Z,20.40
2018-11-23T08:34:45.850Z,16.00
2018-11-23T08:35:45.782Z,20.10
2018-11-23T08:36:45.715Z,18.60
2018-11-23T08:37:45.653Z,18.20
2018-11-23T08:38:45.579Z,19.50
2018-11-23T08:39:45.524Z,17.70
2018-11-23T08:40:45.446Z,17.40
2018-11-23T08:41:45.378Z,17.60
2018-11-23T08:42:45.310Z,16.00
2018-11-23T08:43:45.241Z,15.90
2018-11-23T08:44:45.171Z,15.10
2018-11-23T08:45:45.107Z,16.90
2018-11-23T08:46:45.039Z,17.80
2018-11-23T08:47:44.971Z,16.40
2018-11-23T08:48:44.904Z,17.60
2018-11-23T08:49:44.837Z,16.80
2018-11-23T08:50:44.770Z,16.50
2018-11-23T08:51:44.700Z,17.70
2018-11-23T08:52:44.634Z,19.40
2018-11-23T08:53:44.566Z,18.40
2018-11-23T08:54:44.499Z,16.60
2018-11-23T08:55:44.431Z,16.20
2018-11-23T08:56:44.365Z,18.60
2018-11-23T08:57:44.303Z,19.60
2018-11-23T08:58:44.227Z,20.00
2018-11-23T08:59:44.169Z,21.80
2018-11-23T09:00:44.094Z,20.10
2018-11-23T09:01:44.027Z,20.60
2018-11-23T09:02:43.958Z,21.70
2018-11-23T09:03:43.891Z,22.60
2018-11-23T09:04:43.826Z,22.00
2018-11-23T09:05:43.758Z,23.50
2018-11-23T09:06:43.686Z,25.40
2018-11-23T09:07:43.615Z,27.90
2018-11-23T09:08:43.551Z,25.80
2018-11-23T09:09:43.484Z,21.90
2018-11-23T09:10:43.421Z,28.10
2018-11-23T09:11:43.350Z,24.60
2018-11-23T09:12:43.297Z,21.60
2018-11-23T09:13:43.213Z,22.20
2018-11-23T09:14:43.162Z,25.90
2018-11-23T09:15:43.079Z,25.20
2018-11-23T09:16:43.013Z,24.10
2018-11-23T09:17:42.975Z,19.20
2018-11-23T09:18:42.876Z,21.40
2018-11-23T09:19:42.838Z,20.40
2018-11-23T09:20:42.740Z,19.70
2018-11-23T09:21:42.675Z,18.80
2018-11-23T09:22:42.598Z,21.30
2018-11-23T09:23:42.532Z,18.20
2018-11-23T09:24:42.472Z,17.70
2018-11-23T09:25:42.401Z,19.80
2018-11-23T09:26:42.333Z,19.80
2018-11-23T09:27:42.281Z,18.80
2018-11-23T09:28:42.196Z,21.70
2018-11-23T09:29:42.131Z,21.60
2018-11-23T09:30:42.065Z,18.60
2018-11-23T09:31:41.994Z,21.50
2018-11-23T09:32:41.927Z,23.10
2018-11-23T09:33:41.899Z,19.90
2018-11-23T09:34:41.792Z,22.20
2018-11-23T09:35:41.723Z,19.60
2018-11-23T09:36:41.658Z,19.20
2018-11-23T09:37:41.596Z,18.20
2018-11-23T09:38:41.524Z,21.00
2018-11-23T09:39:41.453Z,17.90
2018-11-23T09:40:41.388Z,19.80
2018-11-23T09:41:41.321Z,24.10
2018-11-23T09:42:41.249Z,21.80
2018-11-23T09:43:41.183Z,22.50
2018-11-23T09:44:41.115Z,22.00
2018-11-23T09:45:41.047Z,21.00
2018-11-23T09:46:40.990Z,22.40
2018-11-23T09:47:40.913Z,20.40
2018-11-23T09:48:40.844Z,21.60
2018-11-23T09:49:40.812Z,22.40
2018-11-23T09:50:40.707Z,21.30
2018-11-23T09:51:40.640Z,20.80
2018-11-23T09:52:40.578Z,22.50
2018-11-23T09:53:40.520Z,22.60
2018-11-23T09:54:40.440Z,20.50
2018-11-23T09:55:40.375Z,21.70
2018-11-23T09:56:40.313Z,22.20
2018-11-23T09:57:40.236Z,19.70
2018-11-23T09:58:43.764Z,21.00
2018-11-23T09:59:40.115Z,19.80
2018-11-23T10:00:40.042Z,20.00
2018-11-23T10:01:39.969Z,18.30
2018-11-23T10:02:39.902Z,19.70
2018-11-23T10:03:39.831Z,17.10
2018-11-23T10:04:39.764Z,17.70
2018-11-23T10:05:39.730Z,17.90
2018-11-23T10:06:39.639Z,22.20
2018-11-23T10:07:39.561Z,18.10
2018-11-23T10:08:39.493Z,17.70
2018-11-23T10:09:39.427Z,18.50
2018-11-23T10:10:39.360Z,16.40
2018-11-23T10:11:39.289Z,17.60
2018-11-23T10:12:39.237Z,17.40
2018-11-23T10:13:39.158Z,15.20
2018-11-23T10:14:39.087Z,16.90
2018-11-23T10:15:39.039Z,19.20
2018-11-23T10:16:38.954Z,15.80
2018-11-23T10:17:38.884Z,17.10
2018-11-23T10:18:38.818Z,16.90
2018-11-23T10:19:38.758Z,15.50
2018-11-23T10:20:38.682Z,15.60
2018-11-23T10:21:38.618Z,15.70
2018-11-23T10:22:38.543Z,16.90
2018-11-23T10:23:38.481Z,17.20
2018-11-23T10:24:38.414Z,17.50
2018-11-23T10:25:38.341Z,16.80
2018-11-23T10:26:38.338Z,18.90
2018-11-23T10:27:38.208Z,17.40
2018-11-23T10:28:38.141Z,17.30
2018-11-23T10:29:38.074Z,17.70
2018-11-23T10:30:38.005Z,19.50
2018-11-23T10:31:37.938Z,19.50
2018-11-23T10:32:37.887Z,17.70
2018-11-23T10:33:37.802Z,17.60
2018-11-23T10:34:37.737Z,18.50
2018-11-23T10:35:37.672Z,17.30
2018-11-23T10:36:37.601Z,17.20
2018-11-23T10:37:37.538Z,15.60
2018-11-23T10:38:37.464Z,17.20
2018-11-23T10:39:37.398Z,16.40
2018-11-23T10:40:37.332Z,17.00
2018-11-23T10:41:37.261Z,16.70
2018-11-23T10:42:37.192Z,17.50
2018-11-23T10:43:37.125Z,17.50
2018-11-23T10:44:37.054Z,15.90
2018-11-23T10:45:36.992Z,17.00
2018-11-23T10:46:36.923Z,16.40
2018-11-23T10:47:36.854Z,16.20
2018-11-23T10:48:36.798Z,16.90
2018-11-23T10:49:36.724Z,16.30
2018-11-23T10:50:36.654Z,15.80
2018-11-23T10:51:36.587Z,17.30
2018-11-23T10:52:36.670Z,17.50
2018-11-23T10:53:36.453Z,17.60
2018-11-23T10:54:36.381Z,18.50
2018-11-23T10:55:36.324Z,16.80
2018-11-23T10:56:36.246Z,17.40
2018-11-23T10:57:36.179Z,17.70
2018-11-23T10:58:36.112Z,15.00
2018-11-23T10:59:36.043Z,17.20
2018-11-23T11:00:35.981Z,19.10
2018-11-23T11:01:35.919Z,16.30
2018-11-23T11:02:35.839Z,16.20
2018-11-23T11:03:35.770Z,17.90
2018-11-23T11:04:35.704Z,18.30
2018-11-23T11:05:35.639Z,18.70
2018-11-23T11:06:35.567Z,19.40
2018-11-23T11:07:35.500Z,17.70
2018-11-23T11:08:35.435Z,18.90
2018-11-23T11:09:35.364Z,18.90
2018-11-23T11:10:35.335Z,17.00
2018-11-23T11:11:35.239Z,18.70
2018-11-23T11:12:35.163Z,17.90
2018-11-23T11:13:35.116Z,18.20
2018-11-23T11:14:35.027Z,16.60
2018-11-23T11:15:34.958Z,16.20
2018-11-23T11:16:34.892Z,16.60
2018-11-23T11:17:34.826Z,19.70
2018-11-23T11:18:34.756Z,17.30
2018-11-23T11:19:34.688Z,17.70
2018-11-23T11:20:34.631Z,17.00
2018-11-23T11:21:34.554Z,16.70
2018-11-23T11:22:34.486Z,18.00
2018-11-23T11:23:34.419Z,19.50
2018-11-23T11:24:34.352Z,17.90
2018-11-23T11:25:34.285Z,18.70
2018-11-23T11:26:34.216Z,19.50
2018-11-23T11:27:34.149Z,17.20
2018-11-23T11:28:34.082Z,19.40
2018-11-23T11:29:34.016Z,18.10
2018-11-23T11:30:33.946Z,17.00
2018-11-23T11:31:33.879Z,16.30
2018-11-23T11:32:33.811Z,17.40
2018-11-23T11:33:33.742Z,18.60
2018-11-23T11:34:33.673Z,20.00
2018-11-23T11:35:33.607Z,19.60
2018-11-23T11:36:33.541Z,19.70
2018-11-23T11:37:33.474Z,18.40
2018-11-23T11:38:33.402Z,18.20
2018-11-23T11:39:33.338Z,15.20
2018-11-23T11:40:33.274Z,18.60
2018-11-23T11:41:33.199Z,16.80
2018-11-23T11:42:33.138Z,16.90
2018-11-23T11:43:33.069Z,18.70
2018-11-23T11:44:32.997Z,18.40
2018-11-23T11:45:32.932Z,17.70
2018-11-23T11:46:32.862Z,17.90
2018-11-23T11:47:32.798Z,19.80
2018-11-23T11:48:32.729Z,18.40
2018-11-23T11:49:32.661Z,21.50
2018-11-23T11:50:32.594Z,21.10
2018-11-23T11:51:32.527Z,20.60
2018-11-23T11:52:32.459Z,20.30
2018-11-23T11:53:32.396Z,18.70
2018-11-23T11:54:32.322Z,18.50
2018-11-23T11:55:32.256Z,22.10
2018-11-23T11:56:32.188Z,21.80
2018-11-23T11:57:32.133Z,22.00
2018-11-23T11:58:32.057Z,20.90
2018-11-23T11:59:31.985Z,22.90
2018-11-23T12:00:31.917Z,20.70
2018-11-23T12:01:31.848Z,21.10
2018-11-23T12:02:31.780Z,20.00
2018-11-23T12:03:31.714Z,20.40
2018-11-23T12:04:31.646Z,18.50
2018-11-23T12:05:31.574Z,18.50
2018-11-23T12:06:31.511Z,19.50
2018-11-23T12:07:31.442Z,15.90
2018-11-23T12:08:31.374Z,19.90
2018-11-23T12:09:31.309Z,16.60
2018-11-23T12:10:31.239Z,17.10
2018-11-23T12:11:31.172Z,15.80
2018-11-23T12:12:31.106Z,17.60
2018-11-23T12:13:31.043Z,16.00
2018-11-23T12:14:30.969Z,17.00
2018-11-23T12:15:30.904Z,16.20
2018-11-23T12:16:30.833Z,15.70
2018-11-23T12:17:30.767Z,14.60
2018-11-23T12:18:30.706Z,17.80
2018-11-23T12:19:30.628Z,16.20
2018-11-23T12:20:30.562Z,17.00
2018-11-23T12:21:30.496Z,18.10
2018-11-23T12:22:30.428Z,19.30
2018-11-23T12:23:30.362Z,19.30
2018-11-23T12:24:30.292Z,19.10
2018-11-23T12:25:30.225Z,18.40
2018-11-23T12:26:30.157Z,18.90
2018-11-23T12:27:30.087Z,17.20
2018-11-23T12:28:30.021Z,18.60
2018-11-23T12:29:29.954Z,17.20
2018-11-23T12:30:29.885Z,18.70
2018-11-23T12:31:29.826Z,16.60
2018-11-23T12:32:29.752Z,19.10
2018-11-23T12:33:29.683Z,18.70
2018-11-23T12:34:29.614Z,19.50
2018-11-23T12:35:29.546Z,19.40
2018-11-23T12:36:29.480Z,18.00
2018-11-23T12:37:29.418Z,17.80
2018-11-23T12:38:29.343Z,20.10
2018-11-23T12:39:29.275Z,18.80
2018-11-23T12:40:29.207Z,20.20
2018-11-23T12:41:29.143Z,20.10
2018-11-23T12:42:29.072Z,18.60
2018-11-23T12:43:29.004Z,19.90
2018-11-23T12:44:28.935Z,18.80
2018-11-23T12:45:28.870Z,19.40
2018-11-23T12:46:28.802Z,18.60
2018-11-23T12:47:28.733Z,20.70
2018-11-23T12:48:28.665Z,17.70
2018-11-23T12:49:28.598Z,20.60
2018-11-23T12:50:28.528Z,17.80
2018-11-23T12:51:28.469Z,19.40